createdAt,value
2022-11-18T00:01:22.507Z,1.90
2022-11-18T00:03:50.171Z,3.40
2022-11-18T00:06:20.218Z,3.83
2022-11-18T00:08:47.660Z,2.27
2022-11-18T00:11:39.741Z,3.20
2022-11-18T00:14:22.362Z,2.13
2022-11-18T00:17:01.347Z,2.60
2022-11-18T00:19:38.365Z,2.50
2022-11-18T00:22:15.649Z,2.07
2022-11-18T00:24:42.089Z,1.67
2022-11-18T00:27:08.501Z,1.67
2022-11-18T00:29:34.925Z,2.10
2022-11-18T00:32:01.362Z,1.77
2022-11-18T00:34:27.870Z,1.43
2022-11-18T00:36:54.330Z,2.10
2022-11-18T00:39:21.637Z,1.30
2022-11-18T00:42:07.709Z,1.60
2022-11-18T00:44:34.225Z,1.40
2022-11-18T00:47:00.649Z,1.03
2022-11-18T00:49:27.105Z,1.70
2022-11-18T00:51:53.522Z,1.43
2022-11-18T00:54:20.338Z,1.90
2022-11-18T00:56:46.890Z,1.67
2022-11-18T00:59:13.329Z,1.97
2022-11-18T01:01:39.737Z,1.30
2022-11-18T01:04:06.369Z,1.70
2022-11-18T01:06:32.838Z,1.43
2022-11-18T01:08:59.239Z,1.90
2022-11-18T01:11:44.624Z,1.70
2022-11-18T01:14:11.090Z,1.73
2022-11-18T01:16:37.490Z,2.00
2022-11-18T01:19:04.001Z,1.10
2022-11-18T01:21:30.478Z,1.60
2022-11-18T01:23:56.926Z,1.30
2022-11-18T01:26:23.322Z,1.23
2022-11-18T01:28:49.757Z,1.47
2022-11-18T01:31:19.328Z,1.40
2022-11-18T01:33:46.772Z,1.63
2022-11-18T01:36:19.969Z,1.50
2022-11-18T01:38:46.694Z,1.37
2022-11-18T01:41:13.495Z,1.57
2022-11-18T01:44:00.218Z,1.60
2022-11-18T01:46:29.603Z,1.30
2022-11-18T01:49:14.640Z,1.40
2022-11-18T01:51:48.075Z,1.57
2022-11-18T01:54:21.227Z,1.60
2022-11-18T01:56:53.919Z,1.47
2022-11-18T01:59:28.076Z,1.17
2022-11-18T02:02:00.822Z,2.10
2022-11-18T02:04:27.847Z,1.80
2022-11-18T02:06:55.524Z,1.87
2022-11-18T02:09:22.836Z,1.70
2022-11-18T02:11:54.238Z,2.20
2022-11-18T02:14:30.432Z,1.80
2022-11-18T02:17:22.503Z,2.47
2022-11-18T02:20:19.866Z,2.20
2022-11-18T02:23:14.075Z,2.33
2022-11-18T02:26:04.058Z,2.10
2022-11-18T02:28:36.935Z,1.87
2022-11-18T02:31:35.911Z,1.90
2022-11-18T02:34:28.430Z,1.43
2022-11-18T02:37:04.487Z,2.23
2022-11-18T02:39:39.387Z,1.60
2022-11-18T02:42:10.561Z,1.30
2022-11-18T02:44:39.445Z,1.90
2022-11-18T02:47:10.333Z,1.60
2022-11-18T02:49:43.268Z,2.10
2022-11-18T02:52:11.865Z,1.77
2022-11-18T02:54:41.575Z,1.50
2022-11-18T02:57:08.880Z,2.00
2022-11-18T02:59:35.342Z,2.03
2022-11-18T03:02:01.806Z,1.40
2022-11-18T03:04:28.905Z,2.57
2022-11-18T03:07:13.422Z,1.97
2022-11-18T03:09:44.177Z,1.60
2022-11-18T03:12:41.621Z,2.40
2022-11-18T03:15:36.427Z,1.87
2022-11-18T03:18:25.583Z,1.73
2022-11-18T03:21:39.107Z,1.60
2022-11-18T03:24:21.146Z,1.67
2022-11-18T03:27:24.764Z,1.40
2022-11-18T03:30:08.711Z,1.97
2022-11-18T03:32:39.842Z,1.50
2022-11-18T03:35:12.715Z,1.60
2022-11-18T03:37:41.932Z,2.20
2022-11-18T03:40:21.108Z,1.70
2022-11-18T03:42:53.441Z,2.00
2022-11-18T03:45:25.273Z,1.90
2022-11-18T03:47:59.107Z,1.53
2022-11-18T03:50:41.721Z,1.80
2022-11-18T03:53:11.015Z,1.87
2022-11-18T03:55:41.863Z,1.70
2022-11-18T03:58:16.172Z,1.80
2022-11-18T04:00:49.767Z,2.00
2022-11-18T04:03:16.389Z,2.10
2022-11-18T04:05:43.981Z,1.93
2022-11-18T04:08:19.879Z,2.10
2022-11-18T04:10:55.568Z,2.00
2022-11-18T04:13:26.946Z,1.60
2022-11-18T04:15:54.397Z,1.50
2022-11-18T04:18:21.024Z,2.00
2022-11-18T04:20:47.455Z,1.80
2022-11-18T04:23:13.903Z,1.77
2022-11-18T04:25:40.333Z,2.13
2022-11-18T04:28:06.857Z,2.27
2022-11-18T04:30:34.329Z,2.30
2022-11-18T04:33:00.959Z,1.80
2022-11-18T04:35:27.615Z,2.20
2022-11-18T04:37:54.641Z,2.63
2022-11-18T04:40:21.244Z,2.47
2022-11-18T04:42:47.815Z,1.97
2022-11-18T04:45:14.248Z,1.90
2022-11-18T04:47:40.854Z,2.30
2022-11-18T04:50:07.444Z,3.20
2022-11-18T04:52:34.584Z,12.87
2022-11-18T04:55:01.023Z,10.70
2022-11-18T04:57:27.547Z,6.73
2022-11-18T04:59:54.046Z,4.03
2022-11-18T05:02:20.562Z,3.87
2022-11-18T05:04:47.117Z,3.80
2022-11-18T05:07:15.340Z,3.83
2022-11-18T05:09:41.861Z,2.40
2022-11-18T05:12:31.977Z,2.70
2022-11-18T05:14:58.517Z,2.23
2022-11-18T05:17:25.229Z,2.23
2022-11-18T05:19:51.667Z,2.13
2022-11-18T05:22:18.301Z,2.30
2022-11-18T05:24:44.749Z,2.20
2022-11-18T05:27:11.629Z,2.43
2022-11-18T05:29:38.038Z,1.80
2022-11-18T05:32:04.959Z,2.30
2022-11-18T05:34:31.405Z,2.63
2022-11-18T05:36:57.833Z,2.17
2022-11-18T05:39:24.501Z,2.43
2022-11-18T05:42:09.258Z,3.00
2022-11-18T05:44:35.672Z,3.00
2022-11-18T05:47:02.101Z,2.67
2022-11-18T05:49:28.547Z,2.97
2022-11-18T05:51:54.989Z,3.33
2022-11-18T05:54:21.997Z,3.30
2022-11-18T05:56:48.585Z,3.03
2022-11-18T05:59:15.840Z,5.27
2022-11-18T06:02:06.214Z,5.03
2022-11-18T06:04:42.982Z,4.70
2022-11-18T06:07:21.176Z,5.27
2022-11-18T06:09:51.243Z,6.40
2022-11-18T06:12:22.146Z,8.10
2022-11-18T06:15:19.923Z,4.90
2022-11-18T06:17:52.531Z,4.70
2022-11-18T06:20:20.808Z,4.23
2022-11-18T06:22:50.001Z,3.10
2022-11-18T06:25:16.948Z,3.47
2022-11-18T06:27:44.297Z,2.90
2022-11-18T06:30:11.529Z,3.17
2022-11-18T06:32:37.912Z,2.73
2022-11-18T06:35:04.641Z,3.00
2022-11-18T06:37:31.014Z,2.90
2022-11-18T06:39:57.378Z,4.00
2022-11-18T06:42:42.262Z,3.37
2022-11-18T06:45:09.289Z,3.83
2022-11-18T06:47:35.748Z,3.30
2022-11-18T06:50:02.184Z,3.90
2022-11-18T06:52:28.594Z,3.93
2022-11-18T06:54:54.952Z,4.83
2022-11-18T06:57:21.303Z,4.03
2022-11-18T06:59:47.660Z,3.90
2022-11-18T07:02:14.098Z,4.00
2022-11-18T07:04:41.009Z,4.20
2022-11-18T07:07:07.994Z,3.80
2022-11-18T07:09:35.588Z,3.30
2022-11-18T07:12:03.003Z,2.80
2022-11-18T07:14:29.509Z,2.67
2022-11-18T07:16:55.979Z,2.77
2022-11-18T07:19:22.504Z,3.33
2022-11-18T07:21:48.983Z,3.13
2022-11-18T07:24:16.236Z,2.70
2022-11-18T07:26:43.319Z,2.43
2022-11-18T07:29:10.221Z,2.50
2022-11-18T07:31:40.799Z,2.40
2022-11-18T07:34:07.915Z,3.00
2022-11-18T07:36:36.030Z,2.70
2022-11-18T07:39:04.936Z,2.80
2022-11-18T07:41:31.521Z,3.30
2022-11-18T07:44:01.086Z,3.00
2022-11-18T07:46:30.253Z,2.77
2022-11-18T07:48:58.341Z,2.70
2022-11-18T07:51:27.899Z,3.10
2022-11-18T07:53:54.546Z,3.10
2022-11-18T07:56:21.753Z,2.73
2022-11-18T07:58:51.977Z,2.93
2022-11-18T08:01:20.460Z,2.33
2022-11-18T08:03:47.611Z,2.50
2022-11-18T08:06:16.116Z,3.00
2022-11-18T08:08:43.105Z,3.30
2022-11-18T08:11:15.189Z,3.23
2022-11-18T08:13:45.450Z,2.80
2022-11-18T08:16:19.866Z,2.73
2022-11-18T08:18:47.082Z,2.80
2022-11-18T08:21:14.945Z,3.27
2022-11-18T08:23:42.401Z,3.30
2022-11-18T08:26:14.370Z,3.60
2022-11-18T08:28:44.759Z,3.60
2022-11-18T08:31:13.458Z,3.63
2022-11-18T08:33:40.192Z,3.30
2022-11-18T08:36:14.201Z,3.33
2022-11-18T08:38:40.641Z,2.73
2022-11-18T08:41:07.335Z,2.70
2022-11-18T08:43:36.783Z,2.67
2022-11-18T08:46:03.342Z,3.10
2022-11-18T08:48:29.717Z,4.13
2022-11-18T08:50:58.045Z,4.80
2022-11-18T08:53:24.419Z,4.93
2022-11-18T08:55:58.299Z,4.50
2022-11-18T08:58:25.830Z,4.97
2022-11-18T09:00:52.895Z,4.30
2022-11-18T09:03:19.571Z,6.70
2022-11-18T09:05:46.083Z,4.97
2022-11-18T09:08:12.464Z,4.30
2022-11-18T09:10:38.929Z,4.30
2022-11-18T09:13:33.405Z,4.17
2022-11-18T09:15:51.661Z,5.83
2022-11-18T09:18:18.074Z,5.57
2022-11-18T09:20:54.517Z,4.70
2022-11-18T09:23:20.918Z,5.00
2022-11-18T09:25:47.376Z,5.87
2022-11-18T09:28:13.810Z,5.03
2022-11-18T09:30:40.710Z,6.10
2022-11-18T09:33:07.733Z,6.43
2022-11-18T09:35:34.100Z,5.70
2022-11-18T09:38:00.483Z,5.00
2022-11-18T09:40:27.717Z,5.97
2022-11-18T09:43:15.961Z,6.27
2022-11-18T09:45:48.750Z,6.20
2022-11-18T09:48:20.489Z,8.00
2022-11-18T09:50:50.079Z,7.10
2022-11-18T09:53:21.946Z,7.20
2022-11-18T09:55:50.498Z,8.33
2022-11-18T09:58:28.604Z,9.27
2022-11-18T10:00:55.046Z,8.30
2022-11-18T10:03:30.934Z,9.43
2022-11-18T10:06:04.467Z,8.87
2022-11-18T10:08:50.904Z,8.30
2022-11-18T10:11:19.863Z,7.77
2022-11-18T10:13:52.295Z,6.70
2022-11-18T10:16:41.965Z,7.20
2022-11-18T10:19:26.535Z,9.30
2022-11-18T10:22:18.047Z,7.97
2022-11-18T10:24:56.351Z,7.80
2022-11-18T10:27:26.353Z,8.80
2022-11-18T10:29:57.122Z,7.63
2022-11-18T10:32:24.212Z,6.60
2022-11-18T10:34:52.092Z,6.33
2022-11-18T10:40:28.675Z,6.40
2022-11-18T10:42:55.445Z,6.23
2022-11-18T10:45:21.790Z,5.77
2022-11-18T10:47:58.414Z,5.20
2022-11-18T10:50:33.196Z,6.50
2022-11-18T10:53:00.166Z,4.60
2022-11-18T10:55:28.434Z,5.57
2022-11-18T10:58:08.356Z,4.90
2022-11-18T11:00:44.273Z,7.00
2022-11-18T11:03:36.029Z,5.70
2022-11-18T11:06:26.611Z,5.90
2022-11-18T11:08:58.918Z,6.07
2022-11-18T11:11:39.852Z,6.10
2022-11-18T11:14:15.146Z,6.50
2022-11-18T11:16:48.364Z,5.97
2022-11-18T11:19:19.758Z,5.57
2022-11-18T11:21:46.253Z,4.67
2022-11-18T11:24:12.953Z,4.53
2022-11-18T11:30:15.404Z,4.27
2022-11-18T11:32:52.906Z,3.13
2022-11-18T11:35:25.992Z,2.97
2022-11-18T11:37:59.145Z,2.43
2022-11-18T11:40:34.765Z,2.07
2022-11-18T11:43:01.078Z,4.00
2022-11-18T11:45:30.281Z,3.63
2022-11-18T11:48:10.278Z,4.30
2022-11-18T11:51:03.339Z,3.20
2022-11-18T11:53:55.202Z,3.90
2022-11-18T11:56:58.917Z,3.83
2022-11-18T11:59:31.311Z,3.10
2022-11-18T12:02:02.549Z,3.33
2022-11-18T12:04:38.518Z,3.53
2022-11-18T12:07:12.873Z,3.10
2022-11-18T12:09:51.551Z,3.40
2022-11-18T12:12:38.152Z,2.13
2022-11-18T12:15:29.254Z,1.90
2022-11-18T12:18:16.897Z,2.57
2022-11-18T12:20:53.887Z,1.80
2022-11-18T12:23:20.822Z,1.87
2022-11-18T12:25:56.483Z,2.10
2022-11-18T12:28:43.757Z,1.93
2022-11-18T12:31:16.184Z,1.63
2022-11-18T12:33:47.514Z,1.50
2022-11-18T12:36:30.780Z,1.57
2022-11-18T12:38:57.999Z,1.20
2022-11-18T12:41:58.228Z,1.33
2022-11-18T12:44:27.445Z,1.17
2022-11-18T12:46:55.809Z,1.50
2022-11-18T12:49:22.442Z,1.10
2022-11-18T12:51:51.021Z,1.13
2022-11-18T12:54:22.911Z,1.20
2022-11-18T12:56:50.946Z,1.20
2022-11-18T12:59:26.189Z,1.17
2022-11-18T13:02:22.343Z,1.30
2022-11-18T13:05:07.054Z,0.93
2022-11-18T13:07:59.762Z,1.57
2022-11-18T13:10:29.463Z,1.10
2022-11-18T13:12:56.053Z,1.30
2022-11-18T13:15:41.902Z,1.40
2022-11-18T13:18:15.603Z,1.37
2022-11-18T13:20:43.053Z,2.03
2022-11-18T13:23:28.126Z,1.60
2022-11-18T13:26:02.708Z,1.50
2022-11-18T13:28:40.462Z,1.30
2022-11-18T13:31:40.197Z,1.80
2022-11-18T13:34:25.700Z,1.10
2022-11-18T13:36:54.018Z,1.33
2022-11-18T13:39:23.940Z,0.90
2022-11-18T13:42:03.797Z,1.10
2022-11-18T13:44:36.254Z,0.80
2022-11-18T13:47:21.039Z,1.60
2022-11-18T13:49:55.345Z,1.00
2022-11-18T13:52:31.197Z,1.47
2022-11-18T13:55:01.421Z,0.93
2022-11-18T13:57:29.304Z,2.60
2022-11-18T14:00:00.632Z,1.40
2022-11-18T14:02:27.170Z,1.10
2022-11-18T14:04:57.943Z,1.00
2022-11-18T14:07:31.411Z,1.07
2022-11-18T14:10:05.339Z,1.17
2022-11-18T14:12:33.712Z,1.23
2022-11-18T14:15:22.786Z,1.30
2022-11-18T14:17:51.795Z,1.10
2022-11-18T14:20:18.976Z,1.47
2022-11-18T14:22:47.661Z,1.37
2022-11-18T14:25:22.339Z,1.10
2022-11-18T14:27:50.882Z,1.93
2022-11-18T14:30:37.465Z,1.93
2022-11-18T14:33:15.224Z,2.43
2022-11-18T14:35:44.385Z,1.67
2022-11-18T14:38:44.081Z,1.10
2022-11-18T14:41:43.899Z,1.57
2022-11-18T14:44:10.699Z,1.43
2022-11-18T14:46:38.558Z,1.80
2022-11-18T14:49:10.202Z,1.73
2022-11-18T14:51:36.648Z,2.40
2022-11-18T14:54:03.074Z,2.30
2022-11-18T14:56:31.905Z,2.50
2022-11-18T14:58:58.810Z,2.10
2022-11-18T15:01:30.286Z,2.23
2022-11-18T15:03:57.218Z,7.07
2022-11-18T15:06:24.669Z,6.43
2022-11-18T15:08:53.034Z,3.67
2022-11-18T15:11:19.789Z,4.47
2022-11-18T15:13:46.306Z,4.80
2022-11-18T15:16:19.932Z,5.77
2022-11-18T15:18:49.643Z,5.50
2022-11-18T15:21:16.565Z,5.30
2022-11-18T15:23:43.613Z,6.60
2022-11-18T15:26:24.847Z,8.37
2022-11-18T15:28:53.713Z,6.90
2022-11-18T15:31:20.809Z,6.20
2022-11-18T15:33:49.864Z,4.93
2022-11-18T15:36:22.736Z,7.07
2022-11-18T15:38:50.279Z,7.00
2022-11-18T15:41:16.878Z,8.33
2022-11-18T15:43:44.970Z,9.03
2022-11-18T15:46:11.501Z,8.40
2022-11-18T15:48:38.072Z,6.90
2022-11-18T15:51:11.475Z,7.13
2022-11-18T15:53:38.728Z,7.13
2022-11-18T15:56:13.966Z,7.90
2022-11-18T15:58:40.364Z,9.67
2022-11-18T16:01:06.818Z,9.00
2022-11-18T16:03:36.256Z,9.57
2022-11-18T16:06:02.859Z,9.13
2022-11-18T16:08:30.375Z,10.17
2022-11-18T16:11:16.190Z,10.10
2022-11-18T16:13:43.315Z,8.60
2022-11-18T16:16:23.676Z,6.90
2022-11-18T16:18:54.254Z,5.10
2022-11-18T16:21:21.647Z,5.73
2022-11-18T16:23:48.045Z,5.23
2022-11-18T16:26:17.389Z,6.57
2022-11-18T16:28:44.104Z,5.40
2022-11-18T16:31:29.402Z,5.23
2022-11-18T16:33:55.808Z,6.13
2022-11-18T16:36:27.123Z,5.20
2022-11-18T16:38:54.234Z,4.00
2022-11-18T16:41:32.745Z,5.87
2022-11-18T16:44:00.653Z,10.00
2022-11-18T16:46:27.183Z,10.13
2022-11-18T16:48:53.590Z,7.97
2022-11-18T16:51:31.426Z,8.00
2022-11-18T16:54:04.428Z,7.60
2022-11-18T16:56:33.754Z,5.53
2022-11-18T16:59:11.858Z,4.80
2022-11-18T17:01:43.016Z,7.40
2022-11-18T17:04:11.640Z,9.50
2022-11-18T17:06:38.289Z,6.23
2022-11-18T17:09:04.848Z,6.73
2022-11-18T17:11:38.626Z,7.67
2022-11-18T17:14:05.029Z,9.23
2022-11-18T17:16:32.498Z,10.80
2022-11-18T17:19:00.675Z,10.93
2022-11-18T17:21:29.014Z,9.33
2022-11-18T17:23:56.200Z,7.97
2022-11-18T17:26:27.552Z,6.67
2022-11-18T17:28:57.198Z,6.70
2022-11-18T17:31:24.519Z,7.33
2022-11-18T17:33:53.041Z,4.97
2022-11-18T17:36:22.528Z,4.17
2022-11-18T17:38:51.061Z,4.67
2022-11-18T17:41:38.815Z,4.17
2022-11-18T17:44:07.374Z,3.83
2022-11-18T17:46:38.058Z,4.40
2022-11-18T17:49:12.211Z,4.93
2022-11-18T17:51:38.735Z,5.00
2022-11-18T17:54:05.536Z,5.50
2022-11-18T17:56:33.139Z,6.50
2022-11-18T17:58:59.728Z,7.10
2022-11-18T18:01:26.227Z,7.90
2022-11-18T18:03:53.259Z,8.83
2022-11-18T18:06:22.757Z,8.20
2022-11-18T18:08:49.170Z,8.67
2022-11-18T18:11:18.382Z,10.20
2022-11-18T18:14:04.348Z,8.67
2022-11-18T18:16:32.698Z,8.70
2022-11-18T18:19:00.499Z,7.53
2022-11-18T18:21:27.439Z,7.67
2022-11-18T18:23:54.130Z,6.10
2022-11-18T18:26:20.643Z,6.90
2022-11-18T18:28:47.411Z,7.37
2022-11-18T18:31:16.539Z,8.80
2022-11-18T18:33:43.372Z,7.90
2022-11-18T18:36:13.228Z,7.17
2022-11-18T18:38:40.794Z,5.53
2022-11-18T18:41:13.369Z,4.17
2022-11-18T18:43:40.305Z,4.60
2022-11-18T18:46:30.467Z,4.60
2022-11-18T18:49:02.024Z,6.17
2022-11-18T18:51:31.324Z,3.73
2022-11-18T18:53:58.935Z,3.27
2022-11-18T18:56:25.686Z,2.83
2022-11-18T18:58:52.155Z,2.57
2022-11-18T19:01:19.869Z,2.60
2022-11-18T19:03:46.470Z,2.80
2022-11-18T19:09:18.215Z,2.10
2022-11-18T19:12:03.813Z,3.27
2022-11-18T19:14:30.249Z,2.40
2022-11-18T19:16:58.472Z,4.67
2022-11-18T19:19:45.459Z,7.20
2022-11-18T19:22:13.891Z,9.63
2022-11-18T19:24:56.653Z,8.13
2022-11-18T19:27:23.535Z,6.20
2022-11-18T19:29:51.353Z,5.90
2022-11-18T19:32:18.252Z,4.07
2022-11-18T19:34:47.408Z,4.10
2022-11-18T19:37:15.419Z,3.60
2022-11-18T19:39:42.359Z,3.40
2022-11-18T19:42:10.680Z,3.60
2022-11-18T19:44:37.437Z,4.07
2022-11-18T19:47:03.945Z,2.97
2022-11-18T19:49:32.101Z,3.43
2022-11-18T19:51:58.542Z,4.97
2022-11-18T19:54:24.922Z,4.80
2022-11-18T19:56:57.679Z,3.17
2022-11-18T19:59:24.099Z,3.10
2022-11-18T20:01:50.691Z,3.30
2022-11-18T20:04:17.446Z,3.67
2022-11-18T20:06:43.914Z,3.23
2022-11-18T20:09:11.083Z,3.47
2022-11-18T20:11:38.343Z,4.10
2022-11-18T20:14:11.166Z,6.50
2022-11-18T20:16:38.556Z,6.60
2022-11-18T20:19:10.754Z,6.40
2022-11-18T20:21:38.990Z,5.63
2022-11-18T20:24:07.172Z,4.50
2022-11-18T20:26:36.101Z,4.10
2022-11-18T20:29:02.753Z,4.10
2022-11-18T20:31:29.555Z,4.77
2022-11-18T20:33:59.069Z,4.77
2022-11-18T20:36:38.259Z,5.20
2022-11-18T20:39:12.097Z,4.83
2022-11-18T20:41:40.409Z,3.93
2022-11-18T20:44:07.041Z,2.97
2022-11-18T20:46:34.389Z,2.47
2022-11-18T20:49:01.648Z,3.00
2022-11-18T20:51:28.758Z,2.37
2022-11-18T20:54:01.465Z,2.90
2022-11-18T20:56:28.606Z,2.00
2022-11-18T20:58:56.922Z,2.90
2022-11-18T21:01:26.746Z,2.90
2022-11-18T21:03:55.959Z,2.97
2022-11-18T21:06:27.616Z,3.80
2022-11-18T21:08:58.901Z,2.80
2022-11-18T21:11:26.532Z,4.17
2022-11-18T21:14:11.842Z,3.60
2022-11-18T21:16:39.904Z,4.20
2022-11-18T21:19:06.650Z,6.43
2022-11-18T21:21:44.976Z,6.70
2022-11-18T21:24:14.041Z,8.53
2022-11-18T21:26:41.129Z,6.00
2022-11-18T21:29:09.847Z,4.60
2022-11-18T21:31:37.055Z,5.90
2022-11-18T21:34:04.012Z,4.00
2022-11-18T21:36:31.047Z,5.53
2022-11-18T21:38:58.936Z,4.50
2022-11-18T21:41:27.014Z,4.47
2022-11-18T21:44:09.251Z,5.90
2022-11-18T21:46:37.543Z,5.30
2022-11-18T21:49:04.903Z,3.90
2022-11-18T21:51:32.482Z,3.47
2022-11-18T21:53:59.853Z,3.30
2022-11-18T21:56:29.373Z,4.40
2022-11-18T21:58:57.054Z,7.07
2022-11-18T22:01:31.856Z,7.57
2022-11-18T22:04:01.080Z,6.80
2022-11-18T22:06:30.236Z,5.23
2022-11-18T22:08:57.291Z,5.53
2022-11-18T22:11:25.615Z,4.20
2022-11-18T22:13:53.028Z,4.27
2022-11-18T22:16:22.444Z,2.90
2022-11-18T22:18:56.601Z,2.30
2022-11-18T22:21:26.450Z,2.37
2022-11-18T22:23:57.832Z,3.57
2022-11-18T22:26:24.265Z,4.33
2022-11-18T22:28:56.056Z,7.07
2022-11-18T22:31:24.305Z,8.13
2022-11-18T22:33:52.183Z,5.13
2022-11-18T22:36:20.739Z,4.50
2022-11-18T22:38:47.381Z,3.30
2022-11-18T22:41:37.794Z,2.67
2022-11-18T22:44:08.213Z,2.60
2022-11-18T22:46:39.372Z,2.80
2022-11-18T22:49:07.362Z,3.03
2022-11-18T22:51:36.002Z,2.70
2022-11-18T22:56:48.929Z,2.50
2022-11-18T22:59:15.535Z,2.30
2022-11-18T23:01:42.028Z,2.60
2022-11-18T23:04:08.465Z,2.00
2022-11-18T23:06:35.188Z,2.40
2022-11-18T23:09:02.284Z,2.00
2022-11-18T23:11:47.337Z,3.87
2022-11-18T23:14:13.790Z,4.67
2022-11-18T23:16:42.145Z,4.40
2022-11-18T23:19:14.263Z,3.40
2022-11-18T23:21:41.974Z,3.80
2022-11-18T23:24:12.281Z,3.20
2022-11-18T23:26:38.720Z,3.70
2022-11-18T23:29:05.577Z,3.23
2022-11-18T23:31:32.410Z,2.90
2022-11-18T23:33:59.565Z,2.30
2022-11-18T23:36:26.869Z,2.60
2022-11-18T23:38:54.074Z,2.90
2022-11-18T23:41:21.007Z,2.67
2022-11-18T23:43:48.414Z,3.30
2022-11-18T23:46:16.406Z,3.70
2022-11-18T23:48:43.943Z,3.57
2022-11-18T23:51:13.397Z,3.90
2022-11-18T23:53:40.694Z,4.10
2022-11-18T23:56:13.131Z,3.70
2022-11-18T23:58:41.332Z,3.33
